createdAt,value
2023-05-14T00:01:55.027Z,86.40
2023-05-14T00:04:22.744Z,86.40
2023-05-14T00:06:49.797Z,86.30
2023-05-14T00:09:17.065Z,86.40
2023-05-14T00:11:44.142Z,86.30
2023-05-14T00:14:11.223Z,86.30
2023-05-14T00:16:38.317Z,86.10
2023-05-14T00:19:05.736Z,86.40
2023-05-14T00:21:32.878Z,86.80
2023-05-14T00:24:00.029Z,87.10
2023-05-14T00:26:27.143Z,86.90
2023-05-14T00:28:54.215Z,86.80
2023-05-14T00:31:21.360Z,86.30
2023-05-14T00:33:48.499Z,86.20
2023-05-14T00:36:15.616Z,85.90
2023-05-14T00:38:42.706Z,85.80
2023-05-14T00:41:09.771Z,85.70
2023-05-14T00:43:36.890Z,85.60
2023-05-14T00:46:04.129Z,85.50
2023-05-14T00:48:31.389Z,85.40
2023-05-14T00:50:58.570Z,85.30
2023-05-14T00:53:26.240Z,85.40
2023-05-14T00:55:53.361Z,85.30
2023-05-14T00:58:21.409Z,85.20
2023-05-14T01:00:48.598Z,85.20
2023-05-14T01:03:15.933Z,85.40
2023-05-14T01:06:09.650Z,86.30
2023-05-14T01:08:50.508Z,86.40
2023-05-14T01:11:39.981Z,86.10
2023-05-14T01:14:24.664Z,85.90
2023-05-14T01:16:58.270Z,85.70
2023-05-14T01:19:44.015Z,85.50
2023-05-14T01:22:11.701Z,85.40
2023-05-14T01:24:39.223Z,85.50
2023-05-14T01:27:14.778Z,85.30
2023-05-14T01:29:47.663Z,85.20
2023-05-14T01:32:17.397Z,85.20
2023-05-14T01:34:48.622Z,85.10
2023-05-14T01:37:16.114Z,84.80
2023-05-14T01:39:43.612Z,85.10
2023-05-14T01:42:11.486Z,85.10
2023-05-14T01:44:38.937Z,85.10
2023-05-14T01:47:06.075Z,85.10
2023-05-14T01:49:33.214Z,85.10
2023-05-14T01:52:00.314Z,85.10
2023-05-14T01:54:27.359Z,85.00
2023-05-14T01:56:54.470Z,85.20
2023-05-14T01:59:21.566Z,85.30
2023-05-14T02:01:48.697Z,85.60
2023-05-14T02:04:15.871Z,85.50
2023-05-14T02:06:42.993Z,85.40
2023-05-14T02:09:10.261Z,85.90
2023-05-14T02:11:37.345Z,84.90
2023-05-14T02:14:04.427Z,84.70
2023-05-14T02:16:31.661Z,84.70
2023-05-14T02:18:58.878Z,84.80
2023-05-14T02:21:25.971Z,84.90
2023-05-14T02:23:53.039Z,84.70
2023-05-14T02:26:21.363Z,84.90
2023-05-14T02:28:48.501Z,85.70
2023-05-14T02:31:17.604Z,85.80
2023-05-14T02:33:45.050Z,85.80
2023-05-14T02:36:12.205Z,85.90
2023-05-14T02:38:39.410Z,85.70
2023-05-14T02:41:06.712Z,85.50
2023-05-14T02:43:33.807Z,85.70
2023-05-14T02:46:00.868Z,86.10
2023-05-14T02:48:27.988Z,85.80
2023-05-14T02:50:55.095Z,85.80
2023-05-14T02:53:22.239Z,86.00
2023-05-14T02:55:49.354Z,85.80
2023-05-14T02:58:16.439Z,85.90
2023-05-14T03:00:43.550Z,85.90
2023-05-14T03:03:11.358Z,86.20
2023-05-14T03:05:38.836Z,85.90
2023-05-14T03:08:06.641Z,85.70
2023-05-14T03:10:33.792Z,86.00
2023-05-14T03:13:00.949Z,85.80
2023-05-14T03:15:28.133Z,85.80
2023-05-14T03:17:55.297Z,85.50
2023-05-14T03:20:24.732Z,85.50
2023-05-14T03:22:52.430Z,85.90
2023-05-14T03:25:19.600Z,86.20
2023-05-14T03:27:46.708Z,86.30
2023-05-14T03:30:13.978Z,86.60
2023-05-14T03:32:41.438Z,86.60
2023-05-14T03:35:08.869Z,86.70
2023-05-14T03:37:36.108Z,86.80
2023-05-14T03:40:03.434Z,86.70
2023-05-14T03:42:30.632Z,86.60
2023-05-14T03:44:57.699Z,86.30
2023-05-14T03:47:24.773Z,86.30
2023-05-14T03:49:51.848Z,86.20
2023-05-14T03:52:18.907Z,86.10
2023-05-14T03:54:46.055Z,86.00
2023-05-14T03:57:13.098Z,85.80
2023-05-14T03:59:40.186Z,86.10
2023-05-14T04:02:07.420Z,85.70
2023-05-14T04:04:34.659Z,85.60
2023-05-14T04:07:01.764Z,85.50
2023-05-14T04:09:28.813Z,85.10
2023-05-14T04:11:55.897Z,85.20
2023-05-14T04:14:22.971Z,85.10
2023-05-14T04:16:50.116Z,85.10
2023-05-14T04:19:17.326Z,85.20
2023-05-14T04:21:44.472Z,85.20
2023-05-14T04:24:11.512Z,85.80
2023-05-14T04:26:38.573Z,85.00
2023-05-14T04:29:05.679Z,85.40
2023-05-14T04:31:33.688Z,85.50
2023-05-14T04:34:00.801Z,85.20
2023-05-14T04:36:27.865Z,85.10
2023-05-14T04:38:54.925Z,84.90
2023-05-14T04:41:21.986Z,85.30
2023-05-14T04:43:50.389Z,85.50
2023-05-14T04:46:17.605Z,85.60
2023-05-14T04:48:44.730Z,85.50
2023-05-14T04:51:11.970Z,85.60
2023-05-14T04:53:39.037Z,85.50
2023-05-14T04:56:06.583Z,85.40
2023-05-14T04:58:35.038Z,85.20
2023-05-14T05:01:04.939Z,84.90
2023-05-14T05:03:32.342Z,84.80
2023-05-14T05:05:59.472Z,85.10
2023-05-14T05:08:26.634Z,84.20
2023-05-14T05:10:53.678Z,84.30
2023-05-14T05:13:20.759Z,84.10
2023-05-14T05:15:47.858Z,84.00
2023-05-14T05:18:14.927Z,83.90
2023-05-14T05:20:41.981Z,83.60
2023-05-14T05:23:09.078Z,83.90
2023-05-14T05:25:36.158Z,83.90
2023-05-14T05:28:03.246Z,83.70
2023-05-14T05:30:30.360Z,83.40
2023-05-14T05:32:57.647Z,83.60
2023-05-14T05:35:24.801Z,83.80
2023-05-14T05:37:51.853Z,83.60
2023-05-14T05:40:19.062Z,83.50
2023-05-14T05:42:46.121Z,83.30
2023-05-14T05:45:13.217Z,83.20
2023-05-14T05:47:40.818Z,83.20
2023-05-14T05:50:08.799Z,83.10
2023-05-14T05:52:35.963Z,83.00
2023-05-14T05:55:03.600Z,82.80
2023-05-14T05:57:30.714Z,82.70
2023-05-14T05:59:58.074Z,82.60
2023-05-14T06:02:25.609Z,82.60
2023-05-14T06:04:53.133Z,82.70
2023-05-14T06:07:20.317Z,82.80
2023-05-14T06:09:47.360Z,82.90
2023-05-14T06:12:14.404Z,82.80
2023-05-14T06:14:41.472Z,82.80
2023-05-14T06:17:08.659Z,82.70
2023-05-14T06:19:35.733Z,82.70
2023-05-14T06:22:02.962Z,82.70
2023-05-14T06:24:30.074Z,82.80
2023-05-14T06:26:57.182Z,82.80
2023-05-14T06:29:24.896Z,82.70
2023-05-14T06:31:52.049Z,82.70
2023-05-14T06:34:19.393Z,82.90
2023-05-14T06:36:46.429Z,82.90
2023-05-14T06:39:13.591Z,83.40
2023-05-14T06:41:40.628Z,82.60
2023-05-14T06:44:07.699Z,82.60
2023-05-14T06:46:34.920Z,82.40
2023-05-14T06:49:02.066Z,83.10
2023-05-14T06:51:29.238Z,82.50
2023-05-14T06:53:56.367Z,82.40
2023-05-14T06:56:23.452Z,82.20
2023-05-14T06:58:50.751Z,82.20
2023-05-14T07:01:17.870Z,82.10
2023-05-14T07:03:44.960Z,82.00
2023-05-14T07:06:13.539Z,81.90
2023-05-14T07:08:40.853Z,81.90
2023-05-14T07:11:07.921Z,81.70
2023-05-14T07:13:35.016Z,81.80
2023-05-14T07:16:02.079Z,82.00
2023-05-14T07:18:29.183Z,82.30
2023-05-14T07:20:56.268Z,82.20
2023-05-14T07:23:23.344Z,82.40
2023-05-14T07:25:50.425Z,82.60
2023-05-14T07:28:17.708Z,82.90
2023-05-14T07:30:44.766Z,83.00
2023-05-14T07:33:11.894Z,83.30
2023-05-14T07:35:39.081Z,83.10
2023-05-14T07:38:06.246Z,83.40
2023-05-14T07:40:33.490Z,83.40
2023-05-14T07:43:00.583Z,83.60
2023-05-14T07:45:27.748Z,83.90
2023-05-14T07:47:54.948Z,83.80
2023-05-14T07:50:23.322Z,83.60
2023-05-14T07:52:50.612Z,83.80
2023-05-14T07:55:17.824Z,83.70
2023-05-14T07:57:45.614Z,83.70
2023-05-14T08:00:13.348Z,83.60
2023-05-14T08:02:40.712Z,83.40
2023-05-14T08:05:08.956Z,83.50
2023-05-14T08:07:36.069Z,83.50
2023-05-14T08:10:03.285Z,83.50
2023-05-14T08:12:30.413Z,83.50
2023-05-14T08:14:57.480Z,84.30
2023-05-14T08:17:24.587Z,84.70
2023-05-14T08:19:53.605Z,84.60
2023-05-14T08:22:21.676Z,84.50
2023-05-14T08:24:48.797Z,84.40
2023-05-14T08:27:16.571Z,84.40
2023-05-14T08:29:43.624Z,84.30
2023-05-14T08:32:22.000Z,84.60
2023-05-14T08:34:50.675Z,85.10
2023-05-14T08:37:17.840Z,84.90
2023-05-14T08:39:44.896Z,85.00
2023-05-14T08:42:13.412Z,85.00
2023-05-14T08:44:53.122Z,84.90
2023-05-14T08:47:23.735Z,84.70
2023-05-14T08:50:04.892Z,84.60
2023-05-14T08:52:33.524Z,85.20
2023-05-14T08:55:04.204Z,84.40
2023-05-14T08:57:33.305Z,84.60
2023-05-14T09:00:00.843Z,82.90
2023-05-14T09:02:30.004Z,82.60
2023-05-14T09:04:59.387Z,82.40
2023-05-14T09:07:27.161Z,82.20
2023-05-14T09:09:54.925Z,82.50
2023-05-14T09:12:22.416Z,82.50
2023-05-14T09:14:50.870Z,82.60
2023-05-14T09:17:18.528Z,83.30
2023-05-14T09:19:52.736Z,82.50
2023-05-14T09:22:20.338Z,81.90
2023-05-14T09:25:03.260Z,82.30
2023-05-14T09:27:31.962Z,82.10
2023-05-14T09:30:05.842Z,81.90
2023-05-14T09:32:38.001Z,81.50
2023-05-14T09:35:17.817Z,81.70
2023-05-14T09:37:47.299Z,81.80
2023-05-14T09:40:15.065Z,82.40
2023-05-14T09:42:42.320Z,82.20
2023-05-14T09:45:10.610Z,82.00
2023-05-14T09:47:38.683Z,81.70
2023-05-14T09:50:07.189Z,80.60
2023-05-14T09:52:34.980Z,81.90
2023-05-14T09:55:02.473Z,81.50
2023-05-14T09:57:29.595Z,80.60
2023-05-14T09:59:56.690Z,80.90
2023-05-14T10:02:26.839Z,82.10
2023-05-14T10:04:54.681Z,82.20
2023-05-14T10:07:33.503Z,82.50
2023-05-14T10:10:03.487Z,82.90
2023-05-14T10:12:35.552Z,83.10
2023-05-14T10:15:09.752Z,83.10
2023-05-14T10:17:38.959Z,83.30
2023-05-14T10:20:09.198Z,83.30
2023-05-14T10:22:36.481Z,83.50
2023-05-14T10:25:04.341Z,83.70
2023-05-14T10:27:32.010Z,83.60
2023-05-14T10:29:59.153Z,83.50
2023-05-14T10:32:26.827Z,83.50
2023-05-14T10:34:54.100Z,83.60
2023-05-14T10:37:27.795Z,84.10
2023-05-14T10:39:59.418Z,83.40
2023-05-14T10:42:28.845Z,83.40
2023-05-14T10:45:08.182Z,83.40
2023-05-14T10:47:40.105Z,83.40
2023-05-14T10:50:09.082Z,83.60
2023-05-14T10:52:36.981Z,83.60
2023-05-14T10:55:12.563Z,83.90
2023-05-14T10:57:41.877Z,83.70
2023-05-14T11:00:10.671Z,83.40
2023-05-14T11:02:39.478Z,83.20
2023-05-14T11:05:10.940Z,83.10
2023-05-14T11:07:40.959Z,82.90
2023-05-14T11:10:09.179Z,82.80
2023-05-14T11:12:38.115Z,82.60
2023-05-14T11:15:09.297Z,82.40
2023-05-14T11:17:37.960Z,82.20
2023-05-14T11:20:06.533Z,82.10
2023-05-14T11:22:37.942Z,82.10
2023-05-14T11:25:06.219Z,82.00
2023-05-14T11:27:38.220Z,82.00
2023-05-14T11:30:06.588Z,81.90
2023-05-14T11:32:34.893Z,81.70
2023-05-14T11:35:02.255Z,81.80
2023-05-14T11:37:30.565Z,81.90
2023-05-14T11:40:00.901Z,81.80
2023-05-14T11:42:28.109Z,81.70
2023-05-14T11:44:55.368Z,81.80
2023-05-14T11:47:22.813Z,81.80
2023-05-14T11:49:49.960Z,81.60
2023-05-14T11:52:19.349Z,81.50
2023-05-14T11:54:47.413Z,81.30
2023-05-14T11:57:18.025Z,81.40
2023-05-14T11:59:45.557Z,81.50
2023-05-14T12:02:14.469Z,81.40
2023-05-14T12:04:49.343Z,81.60
2023-05-14T12:07:16.505Z,81.80
2023-05-14T12:09:51.382Z,81.80
2023-05-14T12:12:21.322Z,81.90
2023-05-14T12:14:49.688Z,81.00
2023-05-14T12:17:21.958Z,82.40
2023-05-14T12:19:50.903Z,83.20
2023-05-14T12:22:22.517Z,83.50
2023-05-14T12:24:54.746Z,83.40
2023-05-14T12:27:24.446Z,83.80
2023-05-14T12:30:19.067Z,83.70
2023-05-14T12:32:48.886Z,84.40
2023-05-14T12:35:16.227Z,85.40
2023-05-14T12:37:43.502Z,86.10
2023-05-14T12:40:11.497Z,86.30
2023-05-14T12:42:38.589Z,86.60
2023-05-14T12:45:08.371Z,87.10
2023-05-14T12:47:36.732Z,87.10
2023-05-14T12:50:04.288Z,87.20
2023-05-14T12:55:01.700Z,87.60
2023-05-14T12:57:30.151Z,87.60
2023-05-14T12:59:57.462Z,87.50
2023-05-14T13:02:24.536Z,87.60
2023-05-14T13:04:51.599Z,87.50
2023-05-14T13:07:18.806Z,87.70
2023-05-14T13:09:45.855Z,87.70
2023-05-14T13:12:12.909Z,87.60
2023-05-14T13:14:39.953Z,87.70
2023-05-14T13:17:08.150Z,87.70
2023-05-14T13:19:35.374Z,87.70
2023-05-14T13:22:02.458Z,87.30
2023-05-14T13:24:29.588Z,87.40
2023-05-14T13:26:56.666Z,87.40
2023-05-14T13:29:24.608Z,87.40
2023-05-14T13:31:52.867Z,87.20
2023-05-14T13:34:23.094Z,87.20
2023-05-14T13:36:50.648Z,87.10
2023-05-14T13:39:17.898Z,86.90
2023-05-14T13:41:45.507Z,86.60
2023-05-14T13:44:12.598Z,86.50
2023-05-14T13:46:39.696Z,86.40
2023-05-14T13:49:06.796Z,86.30
2023-05-14T13:51:33.907Z,86.00
2023-05-14T13:54:00.964Z,86.00
2023-05-14T13:56:28.042Z,85.70
2023-05-14T13:58:55.721Z,85.60
2023-05-14T14:01:23.290Z,85.40
2023-05-14T14:03:50.460Z,85.40
2023-05-14T14:06:17.574Z,85.40
2023-05-14T14:08:44.654Z,85.10
2023-05-14T14:11:13.469Z,85.10
2023-05-14T14:13:41.395Z,84.90
2023-05-14T14:16:08.892Z,84.90
2023-05-14T14:18:36.298Z,85.00
2023-05-14T14:21:03.541Z,84.90
2023-05-14T14:23:30.634Z,84.80
2023-05-14T14:25:57.984Z,84.80
2023-05-14T14:28:25.138Z,84.80
2023-05-14T14:30:52.237Z,84.80
2023-05-14T14:33:19.318Z,84.80
2023-05-14T14:35:46.387Z,84.70
2023-05-14T14:38:14.017Z,84.70
2023-05-14T14:40:41.214Z,84.70
2023-05-14T14:43:08.276Z,84.70
2023-05-14T14:45:35.532Z,84.80
2023-05-14T14:48:22.893Z,84.80
2023-05-14T14:50:50.276Z,84.70
2023-05-14T14:53:17.991Z,84.70
2023-05-14T14:55:45.049Z,84.90
2023-05-14T14:58:12.237Z,85.10
2023-05-14T15:00:40.187Z,85.00
2023-05-14T15:03:09.728Z,85.00
2023-05-14T15:05:36.881Z,85.20
2023-05-14T15:08:04.582Z,85.20
2023-05-14T15:10:32.022Z,85.30
2023-05-14T15:12:59.676Z,85.20
2023-05-14T15:15:26.931Z,85.10
2023-05-14T15:17:54.073Z,85.00
2023-05-14T15:20:21.161Z,85.60
2023-05-14T15:22:50.247Z,84.80
2023-05-14T15:25:17.401Z,84.70
2023-05-14T15:27:44.639Z,84.60
2023-05-14T15:30:12.376Z,84.50
2023-05-14T15:32:39.672Z,84.40
2023-05-14T15:35:07.492Z,84.30
2023-05-14T15:37:42.255Z,84.10
2023-05-14T15:40:10.865Z,84.20
2023-05-14T15:42:39.546Z,84.40
2023-05-14T15:45:07.001Z,84.50
2023-05-14T15:47:34.185Z,84.30
2023-05-14T15:50:01.337Z,84.30
2023-05-14T15:52:28.649Z,84.50
2023-05-14T15:54:57.222Z,84.40
2023-05-14T15:57:24.317Z,84.60
2023-05-14T15:59:51.540Z,84.50
2023-05-14T16:02:18.656Z,84.40
2023-05-14T16:04:45.695Z,84.10
2023-05-14T16:07:13.375Z,84.40
2023-05-14T16:09:40.557Z,84.40
2023-05-14T16:12:08.463Z,84.50
2023-05-14T16:14:35.871Z,84.60
2023-05-14T16:17:03.118Z,84.80
2023-05-14T16:19:30.401Z,84.80
2023-05-14T16:21:57.516Z,84.90
2023-05-14T16:24:24.610Z,84.90
2023-05-14T16:26:51.813Z,85.20
2023-05-14T16:29:19.084Z,85.20
2023-05-14T16:31:46.353Z,85.30
2023-05-14T16:34:13.708Z,85.30
2023-05-14T16:36:41.071Z,85.00
2023-05-14T16:39:08.677Z,85.00
2023-05-14T16:41:36.173Z,85.00
2023-05-14T16:44:03.948Z,85.00
2023-05-14T16:46:31.205Z,85.00
2023-05-14T16:48:58.385Z,85.00
2023-05-14T16:51:25.557Z,84.90
2023-05-14T16:53:54.045Z,85.00
2023-05-14T16:56:23.038Z,85.00
2023-05-14T16:58:50.300Z,84.80
2023-05-14T17:01:17.454Z,85.10
2023-05-14T17:03:45.548Z,85.10
2023-05-14T17:06:12.659Z,85.10
2023-05-14T17:08:39.745Z,85.00
2023-05-14T17:11:06.890Z,85.10
2023-05-14T17:13:34.120Z,84.90
2023-05-14T17:16:01.696Z,85.00
2023-05-14T17:18:28.953Z,84.60
2023-05-14T17:20:56.244Z,85.40
2023-05-14T17:23:23.391Z,84.90
2023-05-14T17:25:50.585Z,84.60
2023-05-14T17:28:17.678Z,84.40
2023-05-14T17:30:44.833Z,85.00
2023-05-14T17:33:11.992Z,85.50
2023-05-14T17:35:39.147Z,85.70
2023-05-14T17:38:06.603Z,85.70
2023-05-14T17:40:34.119Z,85.80
2023-05-14T17:43:01.326Z,85.70
2023-05-14T17:45:32.205Z,85.90
2023-05-14T17:48:03.896Z,86.00
2023-05-14T17:50:31.023Z,85.60
2023-05-14T17:52:58.134Z,85.40
2023-05-14T17:55:25.757Z,85.60
2023-05-14T17:57:52.986Z,85.60
2023-05-14T18:00:20.193Z,85.50
2023-05-14T18:02:47.406Z,85.50
2023-05-14T18:05:14.601Z,85.60
2023-05-14T18:07:41.802Z,85.90
2023-05-14T18:10:09.107Z,85.80
2023-05-14T18:12:36.214Z,85.60
2023-05-14T18:15:03.918Z,85.70
2023-05-14T18:17:30.989Z,85.50
2023-05-14T18:19:58.921Z,85.50
2023-05-14T18:22:26.003Z,85.40
2023-05-14T18:24:53.095Z,85.90
2023-05-14T18:27:20.215Z,85.20
2023-05-14T18:29:47.260Z,85.00
2023-05-14T18:32:14.317Z,85.20
2023-05-14T18:34:41.403Z,85.30
2023-05-14T18:37:08.890Z,85.20
2023-05-14T18:39:35.950Z,85.20
2023-05-14T18:42:03.137Z,85.80
2023-05-14T18:44:30.215Z,85.20
2023-05-14T18:46:59.315Z,85.10
2023-05-14T18:49:26.439Z,85.10
2023-05-14T18:51:53.516Z,85.00
2023-05-14T18:54:20.567Z,84.90
2023-05-14T18:56:47.807Z,85.10
2023-05-14T18:59:14.954Z,84.90
2023-05-14T19:01:42.063Z,84.80
2023-05-14T19:04:09.408Z,84.70
2023-05-14T19:06:36.887Z,84.70
2023-05-14T19:09:04.275Z,85.30
2023-05-14T19:11:31.591Z,84.60
2023-05-14T19:13:58.671Z,84.50
2023-05-14T19:16:26.483Z,84.50
2023-05-14T19:18:53.738Z,84.40
2023-05-14T19:21:20.803Z,84.40
2023-05-14T19:23:47.954Z,84.60
2023-05-14T19:26:15.782Z,85.20
2023-05-14T19:28:43.035Z,84.70
2023-05-14T19:31:10.928Z,84.60
2023-05-14T19:33:38.010Z,85.20
2023-05-14T19:36:05.369Z,84.30
2023-05-14T19:38:32.859Z,84.20
2023-05-14T19:40:59.953Z,84.20
2023-05-14T19:43:27.905Z,84.40
2023-05-14T19:45:55.052Z,84.90
2023-05-14T19:48:22.221Z,84.90
2023-05-14T19:50:49.310Z,84.80
2023-05-14T19:53:16.455Z,84.80
2023-05-14T19:55:43.600Z,84.70
2023-05-14T19:58:10.892Z,84.70
2023-05-14T20:00:37.978Z,84.60
2023-05-14T20:03:05.749Z,84.70
2023-05-14T20:05:34.217Z,84.60
2023-05-14T20:08:01.625Z,84.50
2023-05-14T20:10:30.465Z,84.60
2023-05-14T20:12:57.569Z,84.50
2023-05-14T20:15:24.669Z,84.40
2023-05-14T20:17:52.319Z,84.40
2023-05-14T20:20:19.374Z,84.40
2023-05-14T20:22:46.470Z,84.40
2023-05-14T20:25:13.633Z,84.10
2023-05-14T20:27:41.285Z,84.00
2023-05-14T20:30:08.805Z,84.00
2023-05-14T20:32:35.999Z,84.00
2023-05-14T20:35:03.582Z,84.10
2023-05-14T20:37:33.900Z,84.20
2023-05-14T20:40:02.234Z,84.10
2023-05-14T20:42:29.376Z,84.00
2023-05-14T20:44:56.820Z,84.10
2023-05-14T20:47:26.661Z,84.10
2023-05-14T20:49:53.875Z,84.20
2023-05-14T20:52:20.995Z,84.10
2023-05-14T20:54:48.914Z,84.50
2023-05-14T20:57:16.212Z,84.50
2023-05-14T20:59:43.535Z,84.30
2023-05-14T21:02:10.839Z,84.20
2023-05-14T21:04:38.413Z,84.10
2023-05-14T21:07:06.050Z,83.90
2023-05-14T21:09:33.170Z,83.80
2023-05-14T21:12:00.506Z,83.60
2023-05-14T21:14:27.600Z,83.50
2023-05-14T21:16:54.659Z,83.50
2023-05-14T21:19:23.178Z,83.40
2023-05-14T21:21:50.307Z,83.30
2023-05-14T21:24:17.479Z,83.30
2023-05-14T21:26:44.724Z,83.30
2023-05-14T21:29:11.822Z,83.10
2023-05-14T21:31:38.985Z,83.10
2023-05-14T21:34:06.131Z,82.90
2023-05-14T21:36:33.311Z,82.80
2023-05-14T21:39:00.382Z,82.50
2023-05-14T21:41:27.424Z,82.30
2023-05-14T21:43:54.500Z,82.30
2023-05-14T21:46:21.653Z,82.20
2023-05-14T21:48:48.801Z,82.40
2023-05-14T21:51:15.961Z,82.40
2023-05-14T21:53:43.229Z,82.20
2023-05-14T21:56:10.324Z,82.30
2023-05-14T21:58:37.511Z,81.90
2023-05-14T22:01:04.780Z,81.50
2023-05-14T22:03:31.895Z,82.10
2023-05-14T22:05:58.955Z,81.40
2023-05-14T22:08:27.118Z,81.20
2023-05-14T22:10:55.657Z,81.10
2023-05-14T22:13:22.817Z,81.10
2023-05-14T22:15:55.482Z,81.00
2023-05-14T22:18:28.418Z,80.60
2023-05-14T22:20:55.478Z,80.90
2023-05-14T22:23:22.546Z,80.80
2023-05-14T22:25:49.581Z,80.90
2023-05-14T22:28:16.648Z,80.90
2023-05-14T22:30:43.708Z,81.20
2023-05-14T22:33:10.942Z,81.30
2023-05-14T22:35:38.988Z,81.40
2023-05-14T22:38:06.036Z,81.70
2023-05-14T22:40:33.072Z,81.50
2023-05-14T22:43:00.219Z,81.50
2023-05-14T22:45:27.393Z,81.50
2023-05-14T22:47:54.568Z,81.40
2023-05-14T22:50:21.708Z,81.30
2023-05-14T22:52:48.755Z,81.30
2023-05-14T22:55:15.876Z,81.00
2023-05-14T22:57:43.499Z,81.60
2023-05-14T23:00:11.237Z,81.40
2023-05-14T23:02:39.259Z,80.80
2023-05-14T23:05:08.004Z,81.00
2023-05-14T23:07:35.477Z,81.00
2023-05-14T23:10:02.572Z,81.30
2023-05-14T23:12:29.663Z,81.90
2023-05-14T23:14:58.958Z,81.70
2023-05-14T23:17:26.367Z,82.20
2023-05-14T23:19:53.512Z,82.20
2023-05-14T23:22:20.726Z,82.40
2023-05-14T23:24:47.818Z,82.20
2023-05-14T23:27:14.900Z,82.30
2023-05-14T23:29:41.955Z,82.40
2023-05-14T23:32:09.221Z,82.20
2023-05-14T23:34:36.464Z,82.30
2023-05-14T23:37:03.587Z,82.50
2023-05-14T23:39:30.744Z,82.50
2023-05-14T23:41:57.820Z,82.60
2023-05-14T23:44:24.962Z,82.90
2023-05-14T23:46:52.211Z,82.60
2023-05-14T23:49:22.359Z,82.70
2023-05-14T23:51:49.487Z,82.90
2023-05-14T23:54:17.253Z,83.00
2023-05-14T23:56:44.528Z,82.80
2023-05-14T23:59:11.803Z,83.10
